Airfield :
LOGIN :

Register | Disclaimer

   EN    FR    IT 

 










Legend :    VFR   Marginal VFR   IFR   Intensive IFR   Very Intensive IFR
Visi :
Ceiling :
>= 8 km
>= 3000ft
5 to 8 km
1000 to 3000 ft
1500m to 5 km
500 to 1000 ft
800 to 1500m
200 to 500 ft
< 800m
< 200 ft
Symbols :   Thunderstorms  Fog  Heavy snow  Heavy precipitations  Wind > 20 kt
SIGMETs :     Misc.  Thunderstorms  Icing  Turbulence  Mountain Waves  Volcanic Ashes






- Airport Elevation : 55 ft
- IATA code : DSA


EGCN - Robin Hood Doncaster Sheffield

CURRENT METAR :
  • 200150Z 21014KT 9999 BKN021 OVC027 09/07 Q1006

EXPIRED METARs :
  • 200120Z 20014KT 9999 BKN020 OVC027 09/07 Q1006
  • 200050Z 21019KT 9999 BKN021 OVC027 09/07 Q1007
  • 192350Z 21017KT CAVOK 09/07 Q1007
  • 192320Z 22016KT 9999 FEW021 09/07 Q1007

TAF TAF EGCN
Valid from the 20 at 00:00 until the 21 at 00:00 UTC


192301Z 2000/2024 20014KT 9999 SCT012
TEMPO 2000/2014 22017G27KT 6000 RA BKN012
PROB30
TEMPO 2000/2009 BKN008
PROB30
TEMPO 2009/2013 25025G37KT 3000 +RA BKN006
BECMG 2011/2014 28015G25KT
PROB30
TEMPO 2014/2021 8000 SHRA



MET'MAP, your aeronautical weather chart ! - Copyright ORBIFLY December 2007 - Disclaimer

ORBIFLY MET'MAP TEAM :

Programming & Development : Alexandra Zaïnal
Concept & original design : Baudouin d'Aumeries
Assistance for programming : Marc-Olivier Méhu
Technical & hardware support : Manuel Goepfert

Contact : metmap@orbifly.com




SOURCES & CREDITS :

   NOAA